Time;durP1;ratioP1;P1;durP2;ratioP2;P2;SDS_P1;SDS_P2;PMS_P1;PMS_P2;Temp;Humidity;BMP_temperature;BMP_pressure;BME280_temperature;BME280_humidity;BME280_pressure;Samples;Min_cycle;Max_cycle;Signal;HPM_P1;HPM_P2
2022/08/20 00:00:25;;;;;;;20.48;10.10;;;17.90;99.90;;;;;;5114292;28;20032;-70
2022/08/20 00:02:57;;;;;;;21.83;10.95;;;17.90;99.90;;;;;;5098373;28;20042;-71
2022/08/20 00:05:27;;;;;;;21.20;11.00;;;17.90;99.90;;;;;;5098267;28;20089;-70
2022/08/20 00:07:54;;;;;;;17.00;9.88;;;17.90;99.90;;;;;;5116478;28;20548;-69
2022/08/20 00:10:21;;;;;;;25.02;11.65;;;17.90;99.90;;;;;;5078649;28;20055;-70
2022/08/20 00:12:49;;;;;;;25.80;11.77;;;17.90;99.90;;;;;;5097963;28;20078;-69
2022/08/20 00:15:20;;;;;;;17.25;9.25;;;17.90;99.90;;;;;;5097838;28;20054;-68
2022/08/20 00:17:51;;;;;;;21.00;11.85;;;17.90;99.90;;;;;;5116162;28;20048;-69
2022/08/20 00:20:19;;;;;;;18.55;10.63;;;18.00;99.90;;;;;;5116275;28;20372;-69
2022/08/20 00:22:45;;;;;;;19.38;10.45;;;18.00;99.90;;;;;;5097770;28;20078;-69
2022/08/20 00:25:11;;;;;;;16.88;10.70;;;17.90;99.90;;;;;;5097535;28;20039;-69
2022/08/20 00:27:37;;;;;;;21.73;12.57;;;18.00;99.90;;;;;;5115730;28;20038;-69
2022/08/20 00:30:07;;;;;;;18.92;11.13;;;18.00;99.90;;;;;;5097362;28;20118;-69
2022/08/20 00:32:45;;;;;;;31.35;14.48;;;18.00;99.90;;;;;;5115972;28;20038;-69
2022/08/20 00:35:11;;;;;;;25.95;13.35;;;17.90;99.90;;;;;;5097621;28;20035;-69
2022/08/20 00:37:37;;;;;;;17.02;10.13;;;17.90;99.90;;;;;;5115740;28;20043;-69
2022/08/20 00:40:05;;;;;;;31.85;14.63;;;17.90;99.90;;;;;;5113307;28;20047;-69
2022/08/20 00:42:40;;;;;;;14.77;10.57;;;17.90;99.90;;;;;;5097462;28;20047;-69
2022/08/20 00:45:06;;;;;;;19.27;10.52;;;17.80;99.90;;;;;;5097208;28;20079;-69
2022/08/20 00:47:33;;;;;;;36.97;13.98;;;17.80;99.90;;;;;;5096484;28;20491;-69
2022/08/20 00:49:58;;;;;;;70.20;16.95;;;17.80;99.90;;;;;;5079520;28;20432;-69
2022/08/20 00:52:24;;;;;;;16.65;10.02;;;17.80;99.90;;;;;;5096498;28;20074;-69
2022/08/20 00:54:57;;;;;;;136.55;18.85;;;17.70;99.90;;;;;;5114360;28;20504;-69
2022/08/20 00:57:31;;;;;;;18.15;9.73;;;17.70;99.90;;;;;;5096039;28;20043;-69
2022/08/20 00:59:58;;;;;;;12.88;8.55;;;17.70;99.90;;;;;;5114538;28;20399;-69
2022/08/20 01:02:27;;;;;;;20.15;9.57;;;17.60;99.90;;;;;;5113050;28;20044;-69
2022/08/20 01:04:54;;;;;;;375.77;28.05;;;17.60;99.90;;;;;;5113027;28;20517;-69
2022/08/20 01:07:31;;;;;;;16.55;7.43;;;17.60;99.90;;;;;;5113146;28;20395;-69
2022/08/20 01:09:58;;;;;;;20.42;10.68;;;17.50;99.90;;;;;;5110515;28;20889;-69
2022/08/20 01:12:27;;;;;;;31.75;13.13;;;17.50;99.90;;;;;;5113350;28;20074;-69
2022/08/20 01:14:55;;;;;;;176.68;18.10;;;17.40;99.90;;;;;;5078949;28;20048;-69
2022/08/20 01:17:24;;;;;;;15.80;9.85;;;17.40;99.90;;;;;;5095716;28;20122;-69
2022/08/20 01:19:56;;;;;;;29.67;11.73;;;17.40;99.90;;;;;;5095547;28;20180;-69
2022/08/20 01:25:40;;;;;;;26.45;12.48;;;17.40;99.90;;;;;;5095716;28;20043;-69
2022/08/20 01:28:07;;;;;;;16.25;10.50;;;17.40;99.90;;;;;;5096654;28;20036;-69
2022/08/20 01:30:33;;;;;;;26.35;11.75;;;17.40;99.90;;;;;;5114835;28;20437;-69
2022/08/20 01:32:59;;;;;;;27.05;13.75;;;17.30;99.90;;;;;;5096693;28;20035;-69
2022/08/20 01:35:27;;;;;;;43.38;16.02;;;17.30;99.90;;;;;;5114890;28;20055;-69
2022/08/20 01:37:53;;;;;;;37.65;14.43;;;17.40;99.90;;;;;;5096253;28;20039;-72
2022/08/20 01:40:35;;;;;;;22.50;12.73;;;17.30;99.90;;;;;;5112380;28;20361;-70
2022/08/20 01:43:05;;;;;;;22.85;12.45;;;17.30;99.90;;;;;;5096234;28;20122;-70
2022/08/20 01:45:31;;;;;;;22.10;11.18;;;17.30;99.90;;;;;;5096163;28;20044;-70
2022/08/20 01:47:58;;;;;;;31.90;14.18;;;17.30;99.90;;;;;;5114328;28;20513;-67
2022/08/20 01:50:27;;;;;;;38.08;14.65;;;17.30;99.90;;;;;;5114335;28;20043;-67
2022/08/20 01:53:14;;;;;;;15.25;9.32;;;17.20;99.90;;;;;;5113274;28;20036;-67
2022/08/20 01:55:40;;;;;;;30.98;13.48;;;17.20;99.90;;;;;;5113366;28;20053;-67
2022/08/20 01:58:05;;;;;;;18.80;8.68;;;17.20;99.90;;;;;;5096242;28;20043;-66
2022/08/20 02:00:33;;;;;;;13.45;8.32;;;17.20;99.90;;;;;;5114297;28;20094;-67
2022/08/20 02:02:59;;;;;;;24.77;10.45;;;17.10;99.90;;;;;;5113998;28;20533;-67
2022/08/20 02:05:25;;;;;;;31.48;13.23;;;17.10;99.90;;;;;;5095703;28;20044;-67
2022/08/20 02:07:51;;;;;;;31.02;13.25;;;17.10;99.90;;;;;;5095575;28;20063;-66
2022/08/20 02:10:17;;;;;;;33.35;13.90;;;17.00;99.90;;;;;;5093183;28;20123;-66
2022/08/20 02:12:44;;;;;;;43.75;15.60;;;17.00;99.90;;;;;;5113929;28;20044;-67
2022/08/20 02:15:12;;;;;;;18.00;10.15;;;17.00;99.90;;;;;;5113773;28;20039;-67
2022/08/20 02:17:40;;;;;;;23.98;12.40;;;16.90;99.90;;;;;;5095358;28;20036;-66
2022/08/20 02:20:09;;;;;;;36.25;14.43;;;16.90;99.90;;;;;;5078853;28;20395;-66
2022/08/20 02:22:39;;;;;;;19.05;10.10;;;16.80;99.90;;;;;;5113302;28;20048;-66
2022/08/20 02:25:07;;;;;;;49.20;15.68;;;16.80;99.90;;;;;;5095473;28;20040;-67
2022/08/20 02:27:34;;;;;;;41.88;11.45;;;16.80;99.90;;;;;;5078699;28;20146;-66
2022/08/20 02:30:01;;;;;;;209.63;21.35;;;16.80;99.90;;;;;;5095370;28;20043;-66
2022/08/20 02:32:27;;;;;;;162.73;23.25;;;16.80;99.90;;;;;;5095501;28;20036;-66
2022/08/20 02:34:53;;;;;;;302.85;21.23;;;16.80;99.90;;;;;;5095242;28;20040;-66
2022/08/20 02:37:19;;;;;;;196.10;17.33;;;16.70;99.90;;;;;;5095342;28;20040;-67
2022/08/20 02:39:45;;;;;;;21.67;10.82;;;16.70;99.90;;;;;;5076441;28;20051;-67
2022/08/20 02:42:11;;;;;;;22.90;9.65;;;16.60;99.90;;;;;;5095388;28;20058;-67
2022/08/20 02:44:38;;;;;;;210.00;24.48;;;16.60;99.90;;;;;;5113392;28;20043;-67
2022/08/20 02:47:05;;;;;;;20.40;11.20;;;16.50;99.90;;;;;;5095061;28;20040;-67
2022/08/20 02:49:32;;;;;;;34.30;13.10;;;16.50;99.90;;;;;;5112260;28;20368;-67
2022/08/20 02:51:57;;;;;;;16.00;9.05;;;16.50;99.90;;;;;;5113468;28;20100;-67
2022/08/20 02:54:23;;;;;;;14.15;8.77;;;16.50;99.90;;;;;;5113223;28;20063;-67
2022/08/20 02:56:50;;;;;;;12.98;8.20;;;16.40;99.90;;;;;;5113264;28;20079;-67
2022/08/20 02:59:17;;;;;;;22.73;11.30;;;16.40;99.90;;;;;;5094992;28;20043;-67
2022/08/20 03:01:43;;;;;;;25.40;12.70;;;16.40;99.90;;;;;;5113258;28;20502;-67
2022/08/20 03:04:09;;;;;;;24.23;13.02;;;16.50;99.90;;;;;;5113110;28;20082;-67
2022/08/20 03:06:35;;;;;;;40.38;13.32;;;16.50;99.90;;;;;;5094919;28;20071;-67
2022/08/20 03:09:04;;;;;;;18.63;9.93;;;16.50;99.90;;;;;;5113320;28;20051;-67
2022/08/20 03:11:31;;;;;;;25.90;12.23;;;16.50;99.90;;;;;;5075720;28;20522;-67
2022/08/20 03:13:57;;;;;;;75.85;16.58;;;16.50;99.90;;;;;;5113178;28;20480;-67
2022/08/20 03:16:23;;;;;;;14.98;10.15;;;16.50;99.90;;;;;;5113156;28;20391;-67
2022/08/20 03:18:48;;;;;;;35.88;15.90;;;16.50;99.90;;;;;;5094941;28;20042;-67
2022/08/20 03:21:14;;;;;;;32.55;13.25;;;16.50;99.90;;;;;;5112974;28;20369;-67
2022/08/20 03:23:41;;;;;;;39.08;15.23;;;16.50;99.90;;;;;;5113177;28;20079;-67
2022/08/20 03:26:09;;;;;;;33.83;15.18;;;16.50;99.90;;;;;;5094732;28;20043;-67
2022/08/20 03:28:35;;;;;;;35.42;14.98;;;16.50;99.90;;;;;;5094999;28;20353;-67
2022/08/20 03:31:01;;;;;;;35.85;15.90;;;16.50;99.90;;;;;;5094647;28;20040;-67
2022/08/20 03:33:27;;;;;;;26.70;15.15;;;16.50;99.90;;;;;;5094828;28;20036;-67
2022/08/20 03:35:53;;;;;;;31.42;14.20;;;16.50;99.90;;;;;;5097295;28;20038;-67
2022/08/20 03:38:22;;;;;;;25.60;13.43;;;16.50;99.90;;;;;;5117198;28;20031;-67
2022/08/20 03:40:48;;;;;;;19.55;11.05;;;16.50;99.90;;;;;;5096434;28;20491;-67
2022/08/20 03:43:14;;;;;;;31.88;14.07;;;16.50;99.90;;;;;;5098520;28;20039;-67
2022/08/20 03:45:42;;;;;;;31.23;14.10;;;16.50;99.90;;;;;;5116697;28;20039;-67
2022/08/20 03:48:11;;;;;;;26.42;13.55;;;16.50;99.90;;;;;;5081571;28;20071;-67
2022/08/20 03:50:40;;;;;;;18.75;10.80;;;16.50;99.90;;;;;;5115520;28;20039;-67
2022/08/20 03:53:07;;;;;;;18.42;10.93;;;16.50;99.90;;;;;;5115439;28;20035;-67
2022/08/20 03:55:34;;;;;;;27.52;12.90;;;16.50;99.90;;;;;;5116725;28;20043;-67
2022/08/20 03:58:05;;;;;;;27.25;11.98;;;16.50;99.90;;;;;;5115455;28;20491;-67
2022/08/20 04:00:57;;;;;;;26.45;12.88;;;16.50;99.90;;;;;;5115294;28;20615;-67
2022/08/20 04:03:23;;;;;;;30.10;13.40;;;16.50;99.90;;;;;;5112231;28;20108;-67
2022/08/20 04:05:50;;;;;;;20.05;11.05;;;16.50;99.90;;;;;;5115388;28;20039;-67
2022/08/20 04:08:20;;;;;;;25.95;12.40;;;16.50;99.90;;;;;;5116461;28;20066;-67
2022/08/20 04:10:48;;;;;;;19.25;8.93;;;16.40;99.90;;;;;;5112799;28;20052;-67
2022/08/20 04:13:16;;;;;;;16.70;9.75;;;16.40;99.90;;;;;;5116144;28;20176;-67
2022/08/20 04:15:44;;;;;;;27.30;11.48;;;16.40;99.90;;;;;;5115287;28;20158;-67
2022/08/20 04:18:11;;;;;;;23.23;10.52;;;16.40;99.90;;;;;;5115195;28;20031;-67
2022/08/20 04:20:38;;;;;;;37.17;12.07;;;16.30;99.90;;;;;;5114883;28;20480;-67
2022/08/20 04:23:04;;;;;;;28.52;12.23;;;16.30;99.90;;;;;;5116191;28;20420;-67
2022/08/20 04:25:32;;;;;;;29.58;13.15;;;16.30;99.90;;;;;;5114553;28;20043;-67
2022/08/20 04:28:00;;;;;;;14.93;7.32;;;16.20;99.90;;;;;;5114008;28;20471;-67
2022/08/20 04:30:27;;;;;;;24.17;10.80;;;16.20;99.90;;;;;;5115290;28;20475;-67
2022/08/20 04:32:54;;;;;;;24.55;10.10;;;16.10;99.90;;;;;;5115127;28;20092;-67
2022/08/20 04:35:23;;;;;;;23.48;9.57;;;16.10;99.90;;;;;;5113812;28;20052;-67
2022/08/20 04:38:00;;;;;;;22.95;10.73;;;16.10;99.90;;;;;;5113788;28;20105;-67
2022/08/20 04:43:12;;;;;;;25.88;10.25;;;16.00;99.90;;;;;;5113538;28;20522;-67
2022/08/20 04:45:39;;;;;;;25.45;11.48;;;16.00;99.90;;;;;;5113094;28;20046;-67
2022/08/20 04:48:06;;;;;;;29.20;10.57;;;16.00;99.90;;;;;;5113422;28;20103;-67
2022/08/20 04:50:37;;;;;;;18.55;8.43;;;15.90;99.90;;;;;;5114584;28;20039;-67
2022/08/20 04:53:04;;;;;;;22.75;8.63;;;15.90;99.90;;;;;;5113370;28;20092;-67
2022/08/20 04:55:30;;;;;;;31.38;10.18;;;15.90;99.90;;;;;;5096300;28;20043;-67
2022/08/20 04:58:08;;;;;;;18.38;7.53;;;15.90;99.90;;;;;;5114572;28;20039;-67
2022/08/20 05:00:34;;;;;;;16.15;7.20;;;15.80;99.90;;;;;;5113149;28;20046;-67
2022/08/20 05:03:00;;;;;;;13.70;5.78;;;15.80;99.90;;;;;;5113012;28;20050;-67
2022/08/20 05:05:26;;;;;;;20.83;8.02;;;15.70;99.90;;;;;;5112990;28;20051;-67
2022/08/20 05:07:54;;;;;;;16.50;7.00;;;15.70;99.90;;;;;;5096210;28;20036;-67
2022/08/20 05:10:20;;;;;;;18.02;7.65;;;15.70;99.90;;;;;;5110554;28;20411;-67
2022/08/20 05:12:46;;;;;;;100.35;12.70;;;15.70;99.90;;;;;;5113004;28;20051;-67
2022/08/20 05:15:12;;;;;;;24.08;5.82;;;15.60;99.90;;;;;;5113073;28;20044;-67
2022/08/20 05:17:40;;;;;;;11.85;6.15;;;15.60;99.90;;;;;;5095820;28;20047;-67
2022/08/20 05:20:09;;;;;;;16.83;6.82;;;15.60;99.90;;;;;;5095929;28;20122;-67
2022/08/20 05:22:35;;;;;;;115.55;11.25;;;15.60;99.90;;;;;;5112657;28;20078;-67
2022/08/20 05:25:01;;;;;;;259.55;20.58;;;15.60;99.90;;;;;;5112620;28;20097;-67
2022/08/20 05:27:28;;;;;;;10.23;5.55;;;15.70;99.90;;;;;;5114038;28;20028;-67
2022/08/20 05:30:01;;;;;;;18.25;7.65;;;15.60;99.90;;;;;;5095515;28;20484;-67
2022/08/20 05:32:27;;;;;;;13.18;6.88;;;15.70;99.90;;;;;;5112847;28;20383;-67
2022/08/20 05:34:53;;;;;;;18.08;8.70;;;15.80;99.90;;;;;;5112808;28;20445;-67
2022/08/20 05:37:19;;;;;;;15.40;7.50;;;15.80;99.90;;;;;;5095490;28;20509;-67
2022/08/20 05:39:45;;;;;;;13.65;7.30;;;15.90;99.90;;;;;;5111988;28;20118;-67
2022/08/20 05:42:11;;;;;;;13.55;8.55;;;15.90;99.90;;;;;;5111791;28;20122;-67
2022/08/20 05:44:37;;;;;;;12.55;6.95;;;16.00;99.90;;;;;;5112200;28;20050;-67
2022/08/20 05:47:04;;;;;;;16.70;7.22;;;16.10;99.90;;;;;;5095310;28;20036;-67
2022/08/20 05:49:30;;;;;;;15.55;7.93;;;16.20;99.90;;;;;;5112216;28;20058;-67
2022/08/20 05:51:57;;;;;;;16.27;8.32;;;16.20;99.90;;;;;;5112153;28;20568;-66
2022/08/20 05:54:23;;;;;;;12.70;6.25;;;16.30;99.90;;;;;;5112410;28;20044;-66
2022/08/20 05:56:49;;;;;;;11.80;6.13;;;16.40;99.90;;;;;;5112106;28;20503;-66
2022/08/20 05:59:15;;;;;;;17.88;7.43;;;16.50;99.90;;;;;;5111555;28;20044;-66
2022/08/20 06:01:42;;;;;;;18.55;7.20;;;16.60;99.90;;;;;;5112056;28;20035;-66
2022/08/20 06:04:30;;;;;;;13.35;6.45;;;16.70;99.90;;;;;;5113233;28;20081;-66
2022/08/20 06:07:06;;;;;;;15.57;6.55;;;16.70;99.90;;;;;;5112165;28;20480;-66
2022/08/20 06:09:32;;;;;;;19.70;7.78;;;16.80;99.90;;;;;;5113067;28;20480;-66
2022/08/20 06:12:04;;;;;;;13.95;6.25;;;16.80;99.90;;;;;;5109175;28;20051;-66
2022/08/20 06:14:31;;;;;;;16.65;6.32;;;16.90;99.90;;;;;;5111728;28;20055;-66
2022/08/20 06:17:12;;;;;;;15.25;6.65;;;17.00;99.90;;;;;;5111793;28;20039;-66
2022/08/20 06:19:38;;;;;;;14.50;5.82;;;17.10;99.90;;;;;;5111684;28;20043;-66
2022/08/20 06:22:05;;;;;;;13.52;5.47;;;17.20;99.90;;;;;;5112931;28;20081;-65
2022/08/20 06:24:31;;;;;;;10.43;5.15;;;17.40;99.90;;;;;;5111623;28;20047;-65
2022/08/20 06:26:59;;;;;;;11.70;4.63;;;17.70;99.90;;;;;;5094584;28;20484;-65
2022/08/20 06:29:25;;;;;;;9.85;4.38;;;18.00;99.90;;;;;;5112711;28;20165;-65
2022/08/20 06:31:52;;;;;;;7.95;3.70;;;18.40;99.90;;;;;;5111458;28;20487;-65
2022/08/20 06:34:17;;;;;;;17.63;4.68;;;18.70;99.90;;;;;;5094763;28;20047;-65
2022/08/20 06:36:47;;;;;;;10.40;3.70;;;19.00;99.90;;;;;;5094876;28;20391;-65
2022/08/20 06:39:13;;;;;;;8.07;4.13;;;19.30;99.90;;;;;;5111631;28;20102;-65
2022/08/20 06:41:39;;;;;;;10.95;4.00;;;19.40;99.90;;;;;;5108926;28;20040;-65
2022/08/20 06:44:06;;;;;;;8.52;3.45;;;19.60;99.90;;;;;;5112475;28;20048;-65
2022/08/20 06:46:34;;;;;;;10.70;3.38;;;19.80;99.90;;;;;;5112627;28;20040;-65
2022/08/20 06:49:02;;;;;;;9.20;3.42;;;20.00;99.90;;;;;;5111687;28;20513;-65
2022/08/20 06:51:29;;;;;;;9.23;2.72;;;20.20;99.90;;;;;;5111332;28;20075;-65
2022/08/20 06:53:55;;;;;;;7.68;1.85;;;20.30;99.90;;;;;;5111453;28;20043;-65
2022/08/20 06:56:21;;;;;;;8.95;2.45;;;20.50;99.90;;;;;;5111225;28;20039;-65
2022/08/20 06:58:48;;;;;;;7.28;1.95;;;20.70;99.90;;;;;;5111264;28;20039;-65
2022/08/20 07:01:14;;;;;;;6.03;1.60;;;20.90;99.90;;;;;;5111247;28;20078;-65
2022/08/20 07:03:41;;;;;;;7.50;2.05;;;21.10;99.90;;;;;;5111265;28;20047;-65
2022/08/20 07:06:08;;;;;;;5.28;1.60;;;21.20;99.90;;;;;;5111216;28;20031;-66
2022/08/20 07:08:34;;;;;;;10.20;1.67;;;21.30;99.90;;;;;;5112863;28;20039;-66
2022/08/20 07:11:00;;;;;;;8.10;1.70;;;21.30;99.90;;;;;;5114246;28;20108;-66
2022/08/20 07:13:27;;;;;;;6.15;1.20;;;21.30;99.90;;;;;;5116644;28;20130;-66
2022/08/20 07:15:54;;;;;;;5.22;1.70;;;21.20;99.90;;;;;;5115517;28;20036;-65
2022/08/20 07:18:21;;;;;;;4.95;1.55;;;21.00;99.90;;;;;;5116422;28;20226;-65
2022/08/20 07:20:47;;;;;;;7.50;1.80;;;20.90;99.90;;;;;;5115354;28;20035;-65
2022/08/20 07:23:13;;;;;;;7.65;1.38;;;20.90;99.90;;;;;;5115123;28;20040;-66
2022/08/20 07:25:41;;;;;;;5.53;1.25;;;21.00;99.90;;;;;;5115064;28;20116;-66
2022/08/20 07:28:15;;;;;;;8.00;1.73;;;21.20;99.90;;;;;;5116415;28;20036;-66
2022/08/20 07:33:30;;;;;;;7.88;2.03;;;21.20;99.90;;;;;;5115286;28;20092;-67
2022/08/20 07:36:00;;;;;;;4.75;1.40;;;21.10;99.90;;;;;;5116565;28;20086;-67
2022/08/20 07:38:29;;;;;;;8.93;1.65;;;20.90;99.90;;;;;;5115485;28;20387;-67
2022/08/20 07:40:59;;;;;;;7.43;1.98;;;20.80;99.90;;;;;;5114366;28;20047;-67
2022/08/20 07:43:25;;;;;;;6.85;1.45;;;20.80;99.90;;;;;;5115402;28;20039;-67
2022/08/20 07:45:54;;;;;;;5.38;1.40;;;20.80;99.90;;;;;;5116166;28;20077;-67
2022/08/20 07:48:23;;;;;;;6.55;1.10;;;20.80;99.90;;;;;;5098284;28;20151;-67
2022/08/20 07:50:49;;;;;;;6.35;1.23;;;20.90;99.90;;;;;;5114967;28;20035;-67
2022/08/20 07:53:15;;;;;;;8.90;1.83;;;20.80;99.90;;;;;;5115320;28;20454;-66
2022/08/20 07:55:41;;;;;;;5.18;1.52;;;20.90;99.90;;;;;;5115494;28;20036;-67
2022/08/20 07:58:16;;;;;;;7.38;1.55;;;21.00;99.90;;;;;;5098493;28;20050;-67
2022/08/20 08:00:42;;;;;;;6.88;1.40;;;21.30;99.90;;;;;;5115123;28;20042;-68
2022/08/20 08:03:09;;;;;;;6.28;1.30;;;21.60;99.90;;;;;;5115306;28;20047;-67
2022/08/20 08:05:39;;;;;;;7.68;1.52;;;21.90;99.90;;;;;;5115011;28;20118;-67
2022/08/20 08:08:10;;;;;;;7.88;1.80;;;22.30;99.90;;;;;;5115234;28;20039;-67
2022/08/20 08:10:37;;;;;;;5.07;1.50;;;22.70;99.90;;;;;;5112785;28;20051;-67
2022/08/20 08:13:06;;;;;;;7.43;1.52;;;23.10;99.90;;;;;;5116277;28;20097;-67
2022/08/20 08:15:36;;;;;;;4.38;1.40;;;23.40;99.90;;;;;;5098376;28;20082;-67
2022/08/20 08:18:07;;;;;;;9.55;1.25;;;23.70;99.90;;;;;;5116475;28;20408;-68
2022/08/20 08:20:41;;;;;;;4.65;1.15;;;24.00;99.90;;;;;;5093976;28;20075;-67
2022/08/20 08:23:10;;;;;;;5.00;1.42;;;24.30;99.90;;;;;;5098127;28;20039;-68
2022/08/20 08:25:41;;;;;;;4.85;1.50;;;24.50;99.90;;;;;;5097658;28;20504;-68
2022/08/20 08:28:11;;;;;;;8.57;2.25;;;24.80;99.90;;;;;;5114996;28;20043;-67
2022/08/20 08:30:39;;;;;;;4.10;1.38;;;25.10;99.90;;;;;;5097801;28;20506;-68
2022/08/20 08:35:50;;;;;;;4.50;1.13;;;25.30;99.90;;;;;;5114525;28;20527;-67
2022/08/20 08:38:17;;;;;;;5.53;1.60;;;25.50;99.90;;;;;;5114641;28;20051;-67
2022/08/20 08:40:43;;;;;;;4.88;1.17;;;25.70;99.90;;;;;;5112504;28;20039;-67
2022/08/20 08:43:13;;;;;;;5.88;1.27;;;25.90;99.90;;;;;;5114787;28;20047;-67
2022/08/20 08:45:44;;;;;;;3.47;0.93;;;26.10;99.90;;;;;;5114360;28;20564;-67
2022/08/20 08:48:16;;;;;;;5.45;1.42;;;26.20;98.00;;;;;;5115529;28;20086;-67
2022/08/20 08:50:47;;;;;;;5.15;1.30;;;26.20;96.60;;;;;;5115833;28;20035;-67
2022/08/20 08:53:27;;;;;;;6.18;1.40;;;26.20;94.70;;;;;;5097296;28;20032;-67
2022/08/20 08:55:53;;;;;;;5.78;1.58;;;26.40;95.40;;;;;;5115613;28;20048;-67
2022/08/20 08:58:19;;;;;;;4.65;1.05;;;26.40;94.60;;;;;;5115563;28;20040;-67
2022/08/20 09:00:46;;;;;;;7.43;1.70;;;26.60;96.40;;;;;;5110468;28;20364;-67
2022/08/20 09:03:29;;;;;;;5.68;1.42;;;26.80;96.10;;;;;;5113711;28;20476;-67
2022/08/20 09:05:59;;;;;;;5.47;1.30;;;27.00;95.60;;;;;;5114168;28;20040;-67
2022/08/20 09:08:30;;;;;;;6.43;1.77;;;27.10;95.20;;;;;;5113833;28;20031;-67
2022/08/20 09:11:03;;;;;;;4.35;0.88;;;27.20;95.00;;;;;;5094454;28;20096;-67
2022/08/20 09:13:29;;;;;;;4.65;1.10;;;27.40;95.00;;;;;;5114940;28;20050;-67
2022/08/20 09:15:55;;;;;;;4.57;1.02;;;27.20;93.20;;;;;;5115132;28;20044;-67
2022/08/20 09:18:20;;;;;;;5.10;1.17;;;27.00;93.40;;;;;;5113554;28;20040;-67
2022/08/20 09:20:46;;;;;;;6.22;1.55;;;26.90;92.70;;;;;;5113510;28;20039;-67
2022/08/20 09:23:12;;;;;;;6.13;1.75;;;26.80;90.30;;;;;;5113585;28;20044;-66
2022/08/20 09:25:38;;;;;;;5.57;1.33;;;26.70;90.60;;;;;;5113518;28;20040;-67
2022/08/20 09:28:04;;;;;;;5.65;1.20;;;26.70;90.10;;;;;;5113693;28;20104;-67
2022/08/20 09:30:30;;;;;;;5.07;1.40;;;26.90;90.10;;;;;;5113201;28;20063;-67
2022/08/20 09:32:58;;;;;;;6.47;1.20;;;27.20;90.90;;;;;;5113796;28;20035;-67
2022/08/20 09:35:24;;;;;;;10.07;1.10;;;27.50;90.30;;;;;;5113304;28;20471;-67
2022/08/20 09:37:51;;;;;;;4.90;1.00;;;27.60;87.00;;;;;;5113318;28;20040;-67
2022/08/20 09:40:17;;;;;;;5.28;1.10;;;27.60;86.20;;;;;;5110921;28;20039;-67
2022/08/20 09:42:43;;;;;;;7.80;1.38;;;27.80;86.90;;;;;;5114366;28;20039;-67
2022/08/20 09:45:11;;;;;;;5.57;1.90;;;27.90;84.00;;;;;;5096181;28;20082;-67
2022/08/20 09:47:37;;;;;;;6.40;1.52;;;27.90;78.60;;;;;;5113341;28;20071;-67
2022/08/20 09:50:04;;;;;;;6.45;1.20;;;28.10;79.60;;;;;;5114261;28;20036;-67
2022/08/20 09:52:33;;;;;;;5.95;1.33;;;28.10;77.00;;;;;;5114236;28;20039;-67
2022/08/20 09:55:02;;;;;;;4.43;1.08;;;28.20;79.50;;;;;;5114148;28;20499;-67
2022/08/20 09:57:30;;;;;;;5.65;1.65;;;28.10;74.90;;;;;;5112721;27;20090;-66
2022/08/20 10:00:03;;;;;;;4.80;1.63;;;27.50;78.10;;;;;;5113895;28;20043;-67
2022/08/20 10:02:29;;;;;;;4.80;1.55;;;27.20;82.00;;;;;;5114004;28;20539;-67
2022/08/20 10:04:55;;;;;;;3.67;1.38;;;27.20;83.60;;;;;;5112720;28;20118;-67
2022/08/20 10:07:21;;;;;;;4.50;1.15;;;27.50;83.70;;;;;;5112762;28;20160;-66
2022/08/20 10:09:47;;;;;;;7.50;1.60;;;27.70;84.10;;;;;;5111455;28;20035;-66
2022/08/20 10:12:13;;;;;;;8.63;2.00;;;28.10;84.30;;;;;;5112631;28;20108;-67
2022/08/20 10:14:38;;;;;;;5.80;1.70;;;28.50;76.50;;;;;;5112702;28;20043;-67
2022/08/20 10:17:04;;;;;;;6.40;1.42;;;28.60;74.10;;;;;;5114019;28;20501;-66
2022/08/20 10:19:31;;;;;;;4.30;1.13;;;28.50;72.30;;;;;;5112633;28;20043;-67
2022/08/20 10:21:58;;;;;;;6.90;1.40;;;28.50;71.20;;;;;;5112498;28;20039;-67
2022/08/20 10:24:25;;;;;;;5.03;1.35;;;28.40;70.30;;;;;;5112358;28;20040;-66
2022/08/20 10:26:57;;;;;;;5.82;1.50;;;28.20;67.40;;;;;;5112462;28;20051;-67
2022/08/20 10:29:24;;;;;;;4.88;1.20;;;28.30;70.50;;;;;;5112740;28;20114;-66
2022/08/20 10:31:51;;;;;;;5.63;1.27;;;28.40;67.60;;;;;;5112534;28;20042;-66
2022/08/20 10:34:17;;;;;;;4.00;1.27;;;28.40;67.00;;;;;;5112305;28;20043;-66
2022/08/20 10:36:43;;;;;;;3.35;1.17;;;28.50;68.90;;;;;;5113599;28;20039;-66
2022/08/20 10:39:10;;;;;;;3.30;1.08;;;28.70;66.40;;;;;;5113845;28;20043;-66
2022/08/20 10:41:36;;;;;;;7.15;1.20;;;28.80;63.80;;;;;;5109830;28;20035;-66
2022/08/20 10:44:02;;;;;;;6.25;1.52;;;28.50;66.80;;;;;;5111735;28;20046;-66
2022/08/20 10:46:28;;;;;;;4.95;1.10;;;28.50;69.50;;;;;;5095501;28;20043;-67
2022/08/20 10:48:54;;;;;;;7.18;1.60;;;28.50;68.20;;;;;;5112178;28;20505;-66
2022/08/20 10:51:20;;;;;;;4.93;1.17;;;28.10;65.40;;;;;;5111979;28;20043;-66
2022/08/20 10:53:46;;;;;;;4.60;1.73;;;27.40;64.90;;;;;;5112210;28;20051;-66
2022/08/20 10:56:11;;;;;;;6.00;1.63;;;27.00;66.90;;;;;;5113604;28;20063;-66
2022/08/20 10:58:37;;;;;;;4.63;1.27;;;26.90;70.10;;;;;;5112047;28;20071;-66
2022/08/20 11:01:03;;;;;;;4.70;1.60;;;27.20;72.70;;;;;;5112057;28;20035;-66
2022/08/20 11:03:30;;;;;;;12.25;2.00;;;27.60;73.30;;;;;;5113240;28;20044;-65
2022/08/20 11:05:56;;;;;;;8.82;1.80;;;27.70;76.40;;;;;;5111854;28;20039;-64
2022/08/20 11:08:22;;;;;;;4.47;1.45;;;28.00;76.20;;;;;;5111914;28;20075;-66
2022/08/20 11:10:48;;;;;;;9.68;2.63;;;28.20;73.20;;;;;;5109633;28;20124;-66
2022/08/20 11:13:15;;;;;;;5.38;1.27;;;27.80;70.60;;;;;;5111943;28;20044;-66
2022/08/20 11:15:43;;;;;;;6.95;1.92;;;27.20;70.50;;;;;;5113299;28;20058;-65
2022/08/20 11:18:09;;;;;;;7.63;2.30;;;26.50;73.10;;;;;;5112986;28;20040;-66
2022/08/20 11:20:35;;;;;;;8.43;1.73;;;26.30;79.00;;;;;;5113231;28;20043;-66
2022/08/20 11:23:03;;;;;;;4.50;1.10;;;26.70;80.40;;;;;;5094817;28;20112;-66
2022/08/20 11:25:29;;;;;;;5.28;1.45;;;27.20;76.40;;;;;;5111773;28;20122;-66
2022/08/20 11:27:56;;;;;;;4.25;1.60;;;27.50;72.20;;;;;;5113002;28;20119;-66
2022/08/20 11:30:29;;;;;;;6.88;1.45;;;27.70;71.10;;;;;;5111694;28;20035;-66
2022/08/20 11:32:56;;;;;;;3.35;1.15;;;27.90;68.30;;;;;;5111717;28;20456;-66
2022/08/20 11:35:23;;;;;;;6.25;1.50;;;28.20;66.60;;;;;;5111752;28;20123;-66
2022/08/20 11:37:51;;;;;;;5.80;1.42;;;28.30;64.40;;;;;;5113104;28;20172;-66
2022/08/20 11:40:17;;;;;;;5.00;1.35;;;28.20;64.20;;;;;;5110609;28;20043;-66
2022/08/20 11:42:43;;;;;;;4.82;1.58;;;28.20;65.60;;;;;;5094941;28;20035;-66
2022/08/20 11:45:09;;;;;;;6.78;1.75;;;28.20;63.70;;;;;;5112820;28;20515;-66
2022/08/20 11:47:36;;;;;;;5.65;1.40;;;28.20;62.10;;;;;;5094517;28;20046;-66
2022/08/20 11:50:12;;;;;;;7.53;1.80;;;28.20;62.30;;;;;;5111627;28;20035;-66
2022/08/20 11:52:38;;;;;;;5.38;1.20;;;28.10;63.40;;;;;;5111809;28;20088;-66
2022/08/20 11:55:06;;;;;;;4.28;1.27;;;28.10;65.10;;;;;;5094454;28;20504;-66
2022/08/20 11:57:33;;;;;;;3.42;1.30;;;28.00;65.00;;;;;;5115161;28;20103;-66
2022/08/20 12:00:02;;;;;;;7.60;1.50;;;27.70;66.30;;;;;;5116740;28;20035;-66
2022/08/20 12:02:28;;;;;;;4.55;1.58;;;27.40;67.10;;;;;;5115204;28;20051;-66
2022/08/20 12:04:54;;;;;;;12.00;1.85;;;27.10;63.90;;;;;;5115369;28;20062;-66
2022/08/20 12:07:23;;;;;;;5.72;1.95;;;26.80;64.00;;;;;;5115253;28;20519;-66
2022/08/20 12:09:49;;;;;;;8.40;1.40;;;26.80;65.50;;;;;;5113948;28;20040;-65
2022/08/20 12:12:15;;;;;;;2.83;0.88;;;26.90;66.60;;;;;;5113496;28;20043;-65
2022/08/20 12:14:41;;;;;;;6.70;1.70;;;26.80;67.00;;;;;;5097892;28;20040;-65
2022/08/20 12:17:20;;;;;;;8.50;1.63;;;26.80;67.00;;;;;;5116016;28;20048;-65
2022/08/20 12:19:46;;;;;;;6.50;1.60;;;26.80;64.50;;;;;;5116096;28;20591;-65
2022/08/20 12:22:12;;;;;;;7.47;1.40;;;26.90;67.50;;;;;;5114768;28;20305;-66
2022/08/20 12:24:39;;;;;;;6.40;1.67;;;27.10;66.80;;;;;;5114713;28;20082;-66
2022/08/20 12:27:10;;;;;;;6.05;1.60;;;27.40;65.90;;;;;;5114667;28;20043;-65
2022/08/20 12:29:38;;;;;;;7.43;1.80;;;27.20;63.30;;;;;;5115858;28;20533;-65
2022/08/20 12:32:05;;;;;;;6.40;1.50;;;26.70;63.80;;;;;;5114659;28;20033;-66
2022/08/20 12:34:35;;;;;;;4.82;1.20;;;26.40;65.40;;;;;;5114840;28;20387;-66
2022/08/20 12:37:08;;;;;;;5.90;1.67;;;26.20;68.60;;;;;;5115931;28;20067;-65
2022/08/20 12:39:38;;;;;;;6.93;1.73;;;26.10;74.50;;;;;;5115655;28;20518;-65
2022/08/20 12:42:03;;;;;;;;;;;26.20;71.30;;;;;;5112527;28;20104;-65
2022/08/20 12:44:30;;;;;;;6.65;2.00;;;26.20;71.00;;;;;;5115529;27;19919;-65
2022/08/20 12:47:15;;;;;;;4.63;1.55;;;26.10;69.40;;;;;;5114623;28;20432;-66
2022/08/20 12:49:44;;;;;;;4.47;1.42;;;26.10;68.50;;;;;;5114707;28;20063;-65
2022/08/20 12:52:12;;;;;;;5.40;1.50;;;26.10;69.80;;;;;;5113473;28;20035;-66